createdAt,value
2018-07-01T00:00:54.926Z,16.50
2018-07-01T00:03:23.440Z,16.50
2018-07-01T00:05:51.942Z,16.50
2018-07-01T00:08:20.506Z,16.40
2018-07-01T00:10:49.036Z,16.40
2018-07-01T00:13:17.498Z,16.30
2018-07-01T00:15:46.732Z,16.30
2018-07-01T00:18:15.206Z,16.30
2018-07-01T00:20:43.768Z,16.20
2018-07-01T00:23:12.226Z,16.30
2018-07-01T00:25:40.728Z,16.30
2018-07-01T00:28:09.226Z,16.30
2018-07-01T00:33:05.976Z,16.30
2018-07-01T00:35:34.465Z,16.30
2018-07-01T00:38:02.960Z,16.20
2018-07-01T00:40:31.464Z,16.20
2018-07-01T00:43:00.008Z,16.10
2018-07-01T00:45:28.465Z,16.10
2018-07-01T00:47:57.006Z,16.00
2018-07-01T00:50:25.447Z,16.00
2018-07-01T00:52:54.067Z,15.90
2018-07-01T00:55:22.561Z,15.90
2018-07-01T00:57:51.073Z,15.80
2018-07-01T01:00:34.545Z,15.70
2018-07-01T01:03:03.760Z,15.70
2018-07-01T01:05:33.019Z,15.70
2018-07-01T01:08:02.211Z,15.60
2018-07-01T01:10:30.656Z,15.70
2018-07-01T01:12:59.154Z,15.60
2018-07-01T01:15:27.761Z,15.50
2018-07-01T01:17:56.250Z,15.40
2018-07-01T01:20:24.703Z,15.40
2018-07-01T01:22:53.465Z,15.40
2018-07-01T01:25:21.939Z,15.30
2018-07-01T01:27:50.577Z,15.30
2018-07-01T01:30:19.031Z,15.20
2018-07-01T01:32:47.601Z,15.10
2018-07-01T01:35:16.106Z,15.00
2018-07-01T01:37:44.762Z,14.90
2018-07-01T01:40:14.463Z,14.90
2018-07-01T01:42:48.042Z,14.90
2018-07-01T01:48:12.101Z,14.90
2018-07-01T01:50:46.497Z,14.90
2018-07-01T01:53:20.129Z,14.90
2018-07-01T01:55:52.870Z,14.80
2018-07-01T01:58:34.689Z,14.80
2018-07-01T02:01:09.073Z,14.70
2018-07-01T02:03:52.947Z,14.60
2018-07-01T02:06:25.498Z,14.60
2018-07-01T02:09:02.018Z,14.70
2018-07-01T02:11:31.889Z,14.70
2018-07-01T02:14:03.693Z,14.60
2018-07-01T02:16:36.125Z,14.60
2018-07-01T02:19:04.695Z,14.60
2018-07-01T02:21:33.206Z,14.50
2018-07-01T02:24:05.537Z,14.50
2018-07-01T02:26:34.653Z,14.50
2018-07-01T02:29:03.236Z,14.50
2018-07-01T02:31:31.764Z,14.40
2018-07-01T02:34:00.219Z,14.40
2018-07-01T02:36:28.738Z,14.30
2018-07-01T02:38:57.200Z,14.30
2018-07-01T02:41:25.683Z,14.30
2018-07-01T02:43:54.487Z,14.20
2018-07-01T02:48:51.734Z,14.10
2018-07-01T02:51:20.718Z,14.10
2018-07-01T02:53:49.170Z,14.00
2018-07-01T02:56:17.654Z,14.10
2018-07-01T02:58:46.822Z,14.10
2018-07-01T03:01:15.895Z,14.10
2018-07-01T03:03:44.387Z,14.10
2018-07-01T03:08:41.070Z,14.10
2018-07-01T03:11:10.592Z,14.20
2018-07-01T03:13:39.166Z,14.20
2018-07-01T03:16:07.681Z,14.10
2018-07-01T03:18:36.758Z,14.10
2018-07-01T03:21:05.353Z,14.00
2018-07-01T03:23:34.664Z,14.00
2018-07-01T03:26:03.110Z,14.10
2018-07-01T03:28:31.586Z,14.20
2018-07-01T03:31:00.039Z,14.30
2018-07-01T03:33:28.587Z,14.50
2018-07-01T03:35:57.042Z,14.60
2018-07-01T03:38:25.608Z,14.70
2018-07-01T03:40:54.053Z,14.60
2018-07-01T03:43:22.561Z,14.60
2018-07-01T03:45:51.026Z,14.50
2018-07-01T03:48:19.515Z,14.50
2018-07-01T03:50:48.059Z,14.50
2018-07-01T03:53:17.190Z,14.40
2018-07-01T03:55:45.670Z,14.40
2018-07-01T03:58:14.899Z,14.30
2018-07-01T04:00:43.401Z,14.30
2018-07-01T04:03:11.994Z,14.20
2018-07-01T04:05:40.491Z,14.20
2018-07-01T04:08:09.015Z,14.20
2018-07-01T04:10:37.641Z,14.20
2018-07-01T04:13:06.110Z,14.50
2018-07-01T04:15:34.608Z,14.50
2018-07-01T04:18:03.102Z,14.60
2018-07-01T04:20:31.607Z,14.60
2018-07-01T04:23:00.065Z,14.70
2018-07-01T04:25:28.608Z,14.70
2018-07-01T04:27:57.077Z,14.60
2018-07-01T04:30:25.611Z,14.60
2018-07-01T04:32:54.083Z,14.60
2018-07-01T04:35:22.619Z,14.60
2018-07-01T04:37:51.106Z,14.70
2018-07-01T04:40:19.849Z,14.80
2018-07-01T04:42:48.328Z,14.90
2018-07-01T04:45:16.812Z,15.00
2018-07-01T04:47:45.502Z,15.00
2018-07-01T04:50:13.972Z,15.30
2018-07-01T04:52:42.504Z,15.30
2018-07-01T04:55:11.039Z,15.40
2018-07-01T04:57:39.537Z,15.50
2018-07-01T05:00:08.014Z,15.70
2018-07-01T05:02:36.590Z,15.70
2018-07-01T05:05:05.093Z,15.80
2018-07-01T05:10:01.769Z,16.00
2018-07-01T05:12:30.250Z,16.30
2018-07-01T05:14:58.763Z,16.60
2018-07-01T05:17:27.251Z,16.90
2018-07-01T05:19:56.643Z,17.20
2018-07-01T05:22:31.842Z,17.40
2018-07-01T05:25:00.299Z,17.60
2018-07-01T05:27:35.870Z,17.80
2018-07-01T05:30:04.430Z,18.00
2018-07-01T05:35:01.159Z,18.20
2018-07-01T05:37:29.673Z,18.30
2018-07-01T05:39:58.292Z,18.40
2018-07-01T05:42:26.831Z,18.50
2018-07-01T05:44:55.285Z,18.70
2018-07-01T05:47:23.864Z,18.80
2018-07-01T05:49:52.436Z,18.90
2018-07-01T05:52:20.943Z,18.90
2018-07-01T05:54:49.550Z,19.00
2018-07-01T05:57:18.144Z,19.10
2018-07-01T05:59:46.843Z,19.00
2018-07-01T06:02:15.718Z,19.20
2018-07-01T06:04:44.221Z,19.20
2018-07-01T06:07:13.306Z,19.30
2018-07-01T06:09:42.037Z,19.30
2018-07-01T06:12:10.593Z,19.40
2018-07-01T06:14:39.258Z,19.50
2018-07-01T06:17:07.734Z,19.50
2018-07-01T06:19:36.247Z,19.60
2018-07-01T06:22:04.766Z,19.70
2018-07-01T06:24:33.338Z,19.70
2018-07-01T06:27:01.872Z,19.80
2018-07-01T06:29:30.402Z,19.90
2018-07-01T06:31:58.902Z,19.90
2018-07-01T06:34:27.401Z,20.00
2018-07-01T06:36:56.141Z,20.10
2018-07-01T06:39:24.707Z,20.10
2018-07-01T06:41:53.279Z,20.20
2018-07-01T06:44:22.304Z,20.20
2018-07-01T06:46:50.851Z,20.20
2018-07-01T06:49:19.390Z,20.30
2018-07-01T06:51:47.936Z,20.40
2018-07-01T06:54:16.430Z,20.40
2018-07-01T06:56:44.974Z,20.50
2018-07-01T06:59:13.450Z,20.50
2018-07-01T07:01:41.994Z,20.50
2018-07-01T07:04:10.478Z,20.50
2018-07-01T07:06:39.329Z,20.50
2018-07-01T07:09:09.944Z,20.50
2018-07-01T07:11:38.493Z,20.50
2018-07-01T07:14:07.028Z,20.60
2018-07-01T07:16:35.666Z,20.70
2018-07-01T07:19:04.199Z,20.70
2018-07-01T07:21:32.775Z,20.80
2018-07-01T07:24:01.251Z,20.90
2018-07-01T07:26:29.939Z,20.90
2018-07-01T07:28:58.443Z,20.90
2018-07-01T07:31:27.082Z,21.10
2018-07-01T07:33:55.691Z,21.10
2018-07-01T07:36:24.164Z,21.20
2018-07-01T07:38:52.676Z,21.10
2018-07-01T07:41:21.180Z,21.20
2018-07-01T07:43:49.744Z,21.20
2018-07-01T07:46:18.208Z,21.20
2018-07-01T07:48:46.734Z,21.20
2018-07-01T07:51:15.206Z,21.30
2018-07-01T07:53:43.713Z,21.30
2018-07-01T07:56:12.226Z,21.30
2018-07-01T07:58:40.730Z,21.30
2018-07-01T08:01:09.483Z,21.30
2018-07-01T08:03:38.067Z,21.40
2018-07-01T08:06:06.682Z,21.40
2018-07-01T08:08:35.195Z,21.50
2018-07-01T08:11:03.653Z,21.60
2018-07-01T08:13:32.157Z,21.70
2018-07-01T08:16:00.709Z,21.80
2018-07-01T08:18:29.423Z,21.80
2018-07-01T08:20:57.915Z,21.70
2018-07-01T08:23:26.490Z,21.70
2018-07-01T08:25:54.995Z,21.70
2018-07-01T08:30:52.069Z,21.60
2018-07-01T08:33:21.045Z,21.70
2018-07-01T08:35:49.693Z,21.80
2018-07-01T08:38:18.376Z,21.90
2018-07-01T08:40:47.028Z,21.60
2018-07-01T08:43:15.921Z,21.70
2018-07-01T08:45:44.407Z,21.80
2018-07-01T08:48:12.886Z,21.80
2018-07-01T08:50:41.409Z,21.90
2018-07-01T08:53:09.908Z,22.10
2018-07-01T08:55:38.435Z,22.30
2018-07-01T08:58:06.955Z,22.40
2018-07-01T09:00:35.430Z,22.50
2018-07-01T09:03:03.940Z,22.60
2018-07-01T09:05:32.440Z,22.70
2018-07-01T09:08:00.980Z,22.70
2018-07-01T09:10:29.439Z,22.30
2018-07-01T09:12:57.960Z,22.60
2018-07-01T09:17:54.822Z,22.30
2018-07-01T09:20:23.314Z,21.90
2018-07-01T09:22:51.924Z,21.70
2018-07-01T09:25:20.431Z,22.00
2018-07-01T09:27:48.930Z,21.70
2018-07-01T09:30:17.439Z,21.50
2018-07-01T09:32:45.992Z,21.30
2018-07-01T09:35:14.482Z,21.00
2018-07-01T09:37:43.261Z,20.80
2018-07-01T09:40:11.877Z,21.20
2018-07-01T09:42:40.620Z,21.10
2018-07-01T09:45:09.855Z,20.80
2018-07-01T09:47:38.426Z,20.60
2018-07-01T09:50:08.345Z,20.60
2018-07-01T09:52:36.911Z,21.00
2018-07-01T09:55:05.964Z,21.40
2018-07-01T09:57:34.755Z,21.70
2018-07-01T10:00:03.994Z,22.00
2018-07-01T10:02:32.545Z,22.20
2018-07-01T10:05:01.806Z,21.90
2018-07-01T10:07:31.199Z,21.70
2018-07-01T10:09:59.740Z,21.50
2018-07-01T10:12:28.208Z,21.50
2018-07-01T10:14:56.731Z,21.50
2018-07-01T10:17:25.269Z,21.50
2018-07-01T10:19:53.812Z,21.60
2018-07-01T10:22:22.326Z,21.60
2018-07-01T10:24:50.992Z,21.60
2018-07-01T10:27:20.115Z,21.60
2018-07-01T10:29:48.643Z,21.70
2018-07-01T10:32:17.952Z,21.80
2018-07-01T10:34:46.491Z,22.20
2018-07-01T10:37:15.290Z,22.40
2018-07-01T10:39:43.800Z,22.10
2018-07-01T10:42:12.307Z,21.80
2018-07-01T10:47:09.096Z,21.40
2018-07-01T10:49:37.681Z,21.40
2018-07-01T10:52:06.369Z,21.50
2018-07-01T10:54:34.906Z,21.60
2018-07-01T10:57:03.421Z,21.50
2018-07-01T10:59:31.937Z,21.30
2018-07-01T11:02:00.561Z,21.50
2018-07-01T11:04:29.070Z,21.70
2018-07-01T11:06:57.560Z,21.90
2018-07-01T11:09:26.139Z,22.00
2018-07-01T11:11:54.694Z,22.20
2018-07-01T11:14:23.178Z,22.30
2018-07-01T11:16:51.696Z,22.50
2018-07-01T11:19:20.165Z,22.80
2018-07-01T11:21:49.284Z,23.00
2018-07-01T11:24:17.769Z,22.80
2018-07-01T11:26:46.377Z,22.60
2018-07-01T11:29:14.814Z,22.40
2018-07-01T11:31:43.361Z,22.30
2018-07-01T11:34:11.846Z,22.20
2018-07-01T11:39:10.064Z,22.50
2018-07-01T11:41:38.638Z,22.50
2018-07-01T11:44:07.351Z,22.50
2018-07-01T11:46:36.488Z,22.40
2018-07-01T11:49:05.360Z,22.30
2018-07-01T11:51:33.921Z,22.30
2018-07-01T11:54:03.108Z,22.20
2018-07-01T11:56:31.637Z,22.20
2018-07-01T11:59:00.312Z,22.40
2018-07-01T12:01:28.860Z,22.50
2018-07-01T12:03:57.379Z,22.50
2018-07-01T12:06:26.459Z,22.60
2018-07-01T12:08:55.278Z,22.60
2018-07-01T12:13:52.025Z,22.70
2018-07-01T12:16:20.571Z,22.70
2018-07-01T12:18:49.310Z,22.60
2018-07-01T12:21:18.382Z,22.50
2018-07-01T12:23:46.928Z,22.20
2018-07-01T12:26:15.643Z,22.00
2018-07-01T12:28:44.487Z,21.80
2018-07-01T12:31:12.931Z,21.70
2018-07-01T12:33:41.545Z,21.60
2018-07-01T12:38:39.935Z,21.80
2018-07-01T12:41:08.398Z,21.90
2018-07-01T12:43:37.229Z,21.90
2018-07-01T12:46:06.087Z,21.90
2018-07-01T12:48:34.703Z,21.90
2018-07-01T12:51:03.357Z,22.10
2018-07-01T12:53:31.828Z,22.10
2018-07-01T12:56:00.334Z,22.30
2018-07-01T12:58:29.175Z,22.60
2018-07-01T13:00:57.778Z,23.40
2018-07-01T13:03:26.843Z,24.20
2018-07-01T13:05:55.383Z,23.70
2018-07-01T13:10:53.007Z,23.30
2018-07-01T13:13:21.494Z,23.40
2018-07-01T13:15:50.455Z,24.00
2018-07-01T13:18:18.925Z,25.00
2018-07-01T13:20:47.826Z,26.40
2018-07-01T13:23:16.297Z,27.30
2018-07-01T13:25:44.838Z,28.60
2018-07-01T13:28:13.297Z,28.70
2018-07-01T13:30:41.828Z,28.30
2018-07-01T13:33:10.393Z,27.90
2018-07-01T13:35:38.935Z,27.50
2018-07-01T13:38:07.518Z,27.10
2018-07-01T13:40:35.988Z,26.80
2018-07-01T13:43:04.563Z,26.30
2018-07-01T13:45:33.219Z,25.90
2018-07-01T13:48:01.713Z,26.10
2018-07-01T13:52:59.001Z,28.00
2018-07-01T13:55:27.465Z,27.40
2018-07-01T13:57:55.989Z,27.10
2018-07-01T14:00:24.489Z,26.90
2018-07-01T14:02:53.173Z,26.50
2018-07-01T14:05:22.439Z,26.10
2018-07-01T14:07:51.032Z,25.80
2018-07-01T14:10:19.515Z,25.60
2018-07-01T14:12:48.235Z,25.50
2018-07-01T14:15:16.747Z,25.80
2018-07-01T14:17:45.229Z,25.60
2018-07-01T14:20:13.728Z,25.60
2018-07-01T14:22:42.222Z,25.60
2018-07-01T14:25:10.850Z,26.40
2018-07-01T14:27:39.881Z,28.00
2018-07-01T14:30:10.320Z,27.50
2018-07-01T14:32:38.802Z,29.80
2018-07-01T14:35:07.378Z,30.10
2018-07-01T14:37:36.458Z,29.20
2018-07-01T14:40:05.438Z,28.40
2018-07-01T14:42:33.993Z,27.70
2018-07-01T14:45:02.503Z,27.00
2018-07-01T14:49:59.176Z,26.00
2018-07-01T14:52:27.707Z,25.60
2018-07-01T14:54:56.311Z,25.40
2018-07-01T14:57:24.845Z,27.90
2018-07-01T14:59:53.919Z,30.80
2018-07-01T15:02:22.502Z,32.90
2018-07-01T15:04:50.982Z,34.70
2018-07-01T15:07:19.524Z,33.80
2018-07-01T15:09:48.025Z,32.20
2018-07-01T15:12:17.111Z,31.00
2018-07-01T15:14:45.651Z,29.90
2018-07-01T15:17:14.232Z,28.80
2018-07-01T15:19:42.742Z,28.00
2018-07-01T15:22:11.335Z,27.40
2018-07-01T15:24:39.829Z,26.80
2018-07-01T15:27:08.324Z,26.30
2018-07-01T15:29:36.803Z,25.90
2018-07-01T15:32:05.271Z,25.70
2018-07-01T15:34:33.785Z,25.30
2018-07-01T15:37:02.543Z,25.00
2018-07-01T15:39:31.094Z,24.90
2018-07-01T15:41:59.686Z,29.00
2018-07-01T15:44:28.293Z,29.50
2018-07-01T15:46:56.791Z,31.90
2018-07-01T15:49:25.306Z,34.10
2018-07-01T15:51:53.822Z,36.20
2018-07-01T15:54:22.391Z,37.80
2018-07-01T15:56:51.671Z,39.20
2018-07-01T15:59:20.208Z,40.20
2018-07-01T16:01:48.719Z,40.40
2018-07-01T16:04:17.301Z,37.20
2018-07-01T16:06:45.893Z,35.10
2018-07-01T16:09:14.440Z,33.20
2018-07-01T16:11:42.990Z,32.20
2018-07-01T16:14:11.686Z,35.00
2018-07-01T16:16:40.135Z,35.90
2018-07-01T16:19:08.744Z,37.80
2018-07-01T16:21:37.263Z,39.10
2018-07-01T16:24:06.789Z,40.40
2018-07-01T16:26:40.544Z,39.50
2018-07-01T16:29:09.059Z,36.60
2018-07-01T16:31:37.571Z,34.70
2018-07-01T16:34:06.118Z,33.30
2018-07-01T16:36:34.708Z,32.10
2018-07-01T16:39:04.966Z,31.10
2018-07-01T16:41:33.711Z,30.20
2018-07-01T16:44:02.215Z,29.60
2018-07-01T16:46:30.870Z,29.00
2018-07-01T16:48:59.675Z,28.40
2018-07-01T16:51:28.161Z,27.80
2018-07-01T16:53:56.988Z,27.30
2018-07-01T16:56:25.544Z,26.80
2018-07-01T16:58:54.579Z,26.50
2018-07-01T17:01:23.071Z,26.20
2018-07-01T17:03:51.581Z,25.90
2018-07-01T17:06:20.076Z,25.50
2018-07-01T17:08:48.535Z,25.20
2018-07-01T17:11:17.031Z,24.90
2018-07-01T17:13:45.847Z,24.70
2018-07-01T17:16:14.537Z,24.50
2018-07-01T17:18:42.994Z,24.20
2018-07-01T17:21:11.469Z,24.10
2018-07-01T17:23:40.020Z,23.90
2018-07-01T17:26:08.598Z,23.70
2018-07-01T17:28:37.095Z,23.60
2018-07-01T17:31:11.232Z,23.40
2018-07-01T17:33:39.755Z,23.30
2018-07-01T17:36:08.326Z,23.20
2018-07-01T17:38:36.950Z,23.00
2018-07-01T17:41:05.791Z,22.90
2018-07-01T17:43:34.298Z,22.80
2018-07-01T17:46:03.613Z,22.70
2018-07-01T17:48:32.157Z,22.60
2018-07-01T17:51:01.648Z,22.50
2018-07-01T17:53:41.300Z,22.40
2018-07-01T17:56:09.812Z,22.30
2018-07-01T17:58:38.394Z,22.30
2018-07-01T18:01:07.193Z,22.20
2018-07-01T18:03:35.755Z,22.20
2018-07-01T18:06:04.630Z,22.10
2018-07-01T18:08:33.194Z,22.10
2018-07-01T18:11:01.734Z,22.00
2018-07-01T18:13:30.253Z,22.00
2018-07-01T18:18:27.627Z,21.80
2018-07-01T18:20:56.148Z,21.80
2018-07-01T18:23:53.708Z,21.70
2018-07-01T18:25:53.561Z,21.70
2018-07-01T18:28:30.189Z,21.60
2018-07-01T18:30:50.758Z,21.60
2018-07-01T18:33:19.415Z,21.50
2018-07-01T18:35:48.038Z,21.50
2018-07-01T18:38:16.709Z,21.40
2018-07-01T18:40:45.526Z,21.40
2018-07-01T18:43:14.267Z,21.30
2018-07-01T18:45:42.764Z,21.30
2018-07-01T18:48:11.337Z,21.20
2018-07-01T18:50:39.967Z,21.10
2018-07-01T18:53:08.749Z,21.10
2018-07-01T18:55:37.315Z,21.00
2018-07-01T18:58:05.897Z,21.00
2018-07-01T19:00:34.559Z,21.00
2018-07-01T19:03:03.311Z,20.90
2018-07-01T19:05:31.843Z,20.90
2018-07-01T19:08:00.400Z,20.80
2018-07-01T19:10:29.595Z,20.70
2018-07-01T19:12:58.149Z,20.70
2018-07-01T19:15:26.752Z,20.60
2018-07-01T19:17:55.497Z,20.60
2018-07-01T19:20:24.017Z,20.50
2018-07-01T19:22:52.946Z,20.50
2018-07-01T19:25:21.431Z,20.30
2018-07-01T19:27:50.058Z,20.20
2018-07-01T19:30:18.580Z,20.10
2018-07-01T19:32:47.319Z,20.00
2018-07-01T19:35:15.779Z,19.90
2018-07-01T19:37:44.344Z,19.80
2018-07-01T19:40:12.874Z,19.70
2018-07-01T19:42:42.423Z,19.60
2018-07-01T19:45:10.854Z,19.60
2018-07-01T19:47:39.481Z,19.50
2018-07-01T19:52:42.745Z,19.40
2018-07-01T19:55:11.318Z,19.40
2018-07-01T19:57:39.794Z,19.40
2018-07-01T20:00:08.426Z,19.30
2018-07-01T20:02:36.945Z,19.30
2018-07-01T20:05:05.483Z,19.20
2018-07-01T20:07:34.388Z,19.10
2018-07-01T20:10:03.028Z,19.10
2018-07-01T20:12:31.543Z,19.00
2018-07-01T20:15:00.368Z,19.00
2018-07-01T20:19:57.101Z,18.80
2018-07-01T20:22:25.631Z,18.80
2018-07-01T20:24:54.383Z,18.80
2018-07-01T20:27:23.512Z,18.70
2018-07-01T20:29:52.632Z,18.60
2018-07-01T20:32:21.199Z,18.50
2018-07-01T20:34:50.319Z,18.40
2018-07-01T20:37:18.969Z,18.40
2018-07-01T20:39:48.248Z,18.30
2018-07-01T20:42:16.878Z,18.20
2018-07-01T20:44:45.410Z,18.10
2018-07-01T20:47:14.031Z,18.00
2018-07-01T20:49:42.726Z,18.00
2018-07-01T20:52:11.931Z,18.00
2018-07-01T20:54:40.515Z,17.90
2018-07-01T20:57:09.564Z,17.90
2018-07-01T20:59:38.131Z,17.90
2018-07-01T21:02:06.834Z,17.80
2018-07-01T21:04:36.294Z,17.80
2018-07-01T21:07:05.050Z,17.70
2018-07-01T21:09:33.747Z,17.60
2018-07-01T21:12:02.360Z,17.60
2018-07-01T21:14:30.910Z,17.50
2018-07-01T21:16:59.560Z,17.50
2018-07-01T21:21:56.365Z,17.40
2018-07-01T21:24:24.914Z,17.40
2018-07-01T21:26:53.421Z,17.40
2018-07-01T21:29:21.990Z,17.40
2018-07-01T21:31:50.554Z,17.30
2018-07-01T21:34:19.122Z,17.20
2018-07-01T21:36:48.448Z,17.30
2018-07-01T21:39:17.894Z,17.20
2018-07-01T21:41:46.395Z,17.10
2018-07-01T21:44:14.929Z,17.10
2018-07-01T21:46:43.380Z,17.10
2018-07-01T21:49:11.885Z,17.00
2018-07-01T21:51:40.406Z,16.90
2018-07-01T21:54:08.927Z,16.90
2018-07-01T21:56:37.402Z,16.80
2018-07-01T21:59:05.955Z,16.80
2018-07-01T22:01:34.519Z,16.80
2018-07-01T22:04:03.126Z,16.70
2018-07-01T22:06:36.943Z,16.70
2018-07-01T22:09:07.469Z,16.70
2018-07-01T22:11:50.501Z,16.60
2018-07-01T22:14:27.812Z,16.60
2018-07-01T22:16:56.482Z,16.50
2018-07-01T22:19:25.293Z,16.40
2018-07-01T22:21:54.822Z,16.30
2018-07-01T22:24:25.445Z,16.30
2018-07-01T22:26:54.001Z,16.30
2018-07-01T22:29:22.492Z,16.30
2018-07-01T22:31:51.182Z,16.30
2018-07-01T22:34:20.083Z,16.30
2018-07-01T22:36:49.278Z,16.30
2018-07-01T22:39:20.983Z,16.20
2018-07-01T22:41:50.344Z,16.20
2018-07-01T22:44:18.881Z,16.20
2018-07-01T22:46:48.076Z,16.20
2018-07-01T22:49:16.615Z,16.20
2018-07-01T22:51:45.118Z,16.20
2018-07-01T22:54:13.690Z,16.10
2018-07-01T22:56:42.205Z,16.10
2018-07-01T23:03:48.100Z,16.00
2018-07-01T23:06:16.801Z,15.90
2018-07-01T23:08:45.686Z,15.80
2018-07-01T23:11:14.157Z,15.80
2018-07-01T23:13:42.694Z,15.70
2018-07-01T23:16:11.222Z,15.70
2018-07-01T23:18:39.971Z,15.60
2018-07-01T23:21:08.439Z,15.60
2018-07-01T23:23:36.920Z,15.50
2018-07-01T23:26:05.949Z,15.50
2018-07-01T23:28:34.834Z,15.50
2018-07-01T23:31:03.597Z,15.50
2018-07-01T23:33:32.445Z,15.50
2018-07-01T23:36:00.993Z,15.50
2018-07-01T23:38:30.227Z,15.40
2018-07-01T23:40:58.756Z,15.40
2018-07-01T23:43:27.242Z,15.30
2018-07-01T23:45:55.777Z,15.30
2018-07-01T23:48:24.250Z,15.30
2018-07-01T23:50:52.758Z,15.20
2018-07-01T23:53:21.214Z,15.10
2018-07-01T23:55:49.770Z,15.10
2018-07-01T23:58:18.241Z,15.10
